sensor_id;sensor_type;location;lat;lon;timestamp;P1;durP1;ratioP1;P2;durP2;ratioP2
20069;SDS011;10195;50.868;4.382;2024-02-26T00:00:31;3.17;;;1.97;;
20069;SDS011;10195;50.868;4.382;2024-02-26T00:02:57;3.37;;;1.77;;
20069;SDS011;10195;50.868;4.382;2024-02-26T00:05:22;6.10;;;1.80;;
20069;SDS011;10195;50.868;4.382;2024-02-26T00:07:48;2.93;;;1.60;;
20069;SDS011;10195;50.868;4.382;2024-02-26T00:10:14;4.63;;;1.70;;
20069;SDS011;10195;50.868;4.382;2024-02-26T00:12:40;3.93;;;1.80;;
20069;SDS011;10195;50.868;4.382;2024-02-26T00:15:09;4.07;;;1.70;;
20069;SDS011;10195;50.868;4.382;2024-02-26T00:17:35;7.20;;;2.03;;
20069;SDS011;10195;50.868;4.382;2024-02-26T00:20:02;3.53;;;1.53;;
20069;SDS011;10195;50.868;4.382;2024-02-26T00:22:30;2.13;;;1.70;;
20069;SDS011;10195;50.868;4.382;2024-02-26T00:24:56;2.40;;;1.60;;
20069;SDS011;10195;50.868;4.382;2024-02-26T00:27:22;2.87;;;2.10;;
20069;SDS011;10195;50.868;4.382;2024-02-26T00:29:47;3.37;;;1.70;;
20069;SDS011;10195;50.868;4.382;2024-02-26T00:32:13;3.00;;;1.53;;
20069;SDS011;10195;50.868;4.382;2024-02-26T00:34:39;2.20;;;1.50;;
20069;SDS011;10195;50.868;4.382;2024-02-26T00:37:04;4.83;;;1.90;;
20069;SDS011;10195;50.868;4.382;2024-02-26T00:39:30;2.27;;;1.40;;
20069;SDS011;10195;50.868;4.382;2024-02-26T00:41:56;3.80;;;1.63;;
20069;SDS011;10195;50.868;4.382;2024-02-26T00:44:22;5.20;;;1.83;;
20069;SDS011;10195;50.868;4.382;2024-02-26T00:46:47;4.37;;;1.80;;
20069;SDS011;10195;50.868;4.382;2024-02-26T00:49:13;3.50;;;2.17;;
20069;SDS011;10195;50.868;4.382;2024-02-26T00:51:38;2.67;;;1.87;;
20069;SDS011;10195;50.868;4.382;2024-02-26T00:54:04;4.00;;;2.10;;
20069;SDS011;10195;50.868;4.382;2024-02-26T00:56:30;3.27;;;1.90;;
20069;SDS011;10195;50.868;4.382;2024-02-26T00:58:55;2.83;;;1.53;;
20069;SDS011;10195;50.868;4.382;2024-02-26T01:01:21;2.30;;;1.50;;
20069;SDS011;10195;50.868;4.382;2024-02-26T01:03:46;2.10;;;1.37;;
20069;SDS011;10195;50.868;4.382;2024-02-26T01:06:12;3.80;;;1.60;;
20069;SDS011;10195;50.868;4.382;2024-02-26T01:08:38;2.20;;;1.40;;
20069;SDS011;10195;50.868;4.382;2024-02-26T01:11:04;2.10;;;1.70;;
20069;SDS011;10195;50.868;4.382;2024-02-26T01:13:30;4.33;;;1.60;;
20069;SDS011;10195;50.868;4.382;2024-02-26T01:15:55;2.83;;;1.70;;
20069;SDS011;10195;50.868;4.382;2024-02-26T01:18:21;2.17;;;1.57;;
20069;SDS011;10195;50.868;4.382;2024-02-26T01:20:48;7.33;;;1.57;;
20069;SDS011;10195;50.868;4.382;2024-02-26T01:23:13;4.07;;;1.70;;
20069;SDS011;10195;50.868;4.382;2024-02-26T01:25:39;5.63;;;1.60;;
20069;SDS011;10195;50.868;4.382;2024-02-26T01:28:05;5.33;;;1.83;;
20069;SDS011;10195;50.868;4.382;2024-02-26T01:30:31;2.00;;;1.57;;
20069;SDS011;10195;50.868;4.382;2024-02-26T01:32:57;3.57;;;1.67;;
20069;SDS011;10195;50.868;4.382;2024-02-26T01:35:22;2.17;;;1.67;;
20069;SDS011;10195;50.868;4.382;2024-02-26T01:37:48;2.37;;;1.50;;
20069;SDS011;10195;50.868;4.382;2024-02-26T01:40:14;3.83;;;1.83;;
20069;SDS011;10195;50.868;4.382;2024-02-26T01:42:44;2.40;;;1.60;;
20069;SDS011;10195;50.868;4.382;2024-02-26T01:45:12;4.30;;;1.90;;
20069;SDS011;10195;50.868;4.382;2024-02-26T01:47:41;3.57;;;1.60;;
20069;SDS011;10195;50.868;4.382;2024-02-26T01:50:07;3.80;;;1.60;;
20069;SDS011;10195;50.868;4.382;2024-02-26T01:52:33;3.13;;;1.87;;
20069;SDS011;10195;50.868;4.382;2024-02-26T01:55:00;2.77;;;1.77;;
20069;SDS011;10195;50.868;4.382;2024-02-26T01:57:27;3.77;;;1.13;;
20069;SDS011;10195;50.868;4.382;2024-02-26T01:59:53;3.03;;;1.47;;
20069;SDS011;10195;50.868;4.382;2024-02-26T02:02:19;3.53;;;1.50;;
20069;SDS011;10195;50.868;4.382;2024-02-26T02:04:45;2.53;;;1.60;;
20069;SDS011;10195;50.868;4.382;2024-02-26T02:07:11;4.90;;;1.90;;
20069;SDS011;10195;50.868;4.382;2024-02-26T02:09:37;4.67;;;1.40;;
20069;SDS011;10195;50.868;4.382;2024-02-26T02:12:03;1.63;;;1.50;;
20069;SDS011;10195;50.868;4.382;2024-02-26T02:14:30;2.00;;;1.30;;
20069;SDS011;10195;50.868;4.382;2024-02-26T02:16:56;2.57;;;1.20;;
20069;SDS011;10195;50.868;4.382;2024-02-26T02:19:21;2.50;;;1.23;;
20069;SDS011;10195;50.868;4.382;2024-02-26T02:21:47;1.70;;;1.40;;
20069;SDS011;10195;50.868;4.382;2024-02-26T02:24:13;3.10;;;1.50;;
20069;SDS011;10195;50.868;4.382;2024-02-26T02:26:38;2.23;;;1.50;;
20069;SDS011;10195;50.868;4.382;2024-02-26T02:29:04;4.17;;;1.77;;
20069;SDS011;10195;50.868;4.382;2024-02-26T02:31:31;1.53;;;1.07;;
20069;SDS011;10195;50.868;4.382;2024-02-26T02:33:57;3.87;;;1.40;;
20069;SDS011;10195;50.868;4.382;2024-02-26T02:36:23;4.13;;;1.60;;
20069;SDS011;10195;50.868;4.382;2024-02-26T02:38:50;1.30;;;1.20;;
20069;SDS011;10195;50.868;4.382;2024-02-26T02:41:16;7.93;;;1.50;;
20069;SDS011;10195;50.868;4.382;2024-02-26T02:43:43;2.17;;;1.27;;
20069;SDS011;10195;50.868;4.382;2024-02-26T02:46:08;2.93;;;1.47;;
20069;SDS011;10195;50.868;4.382;2024-02-26T02:48:36;3.73;;;1.93;;
20069;SDS011;10195;50.868;4.382;2024-02-26T02:51:01;1.63;;;1.50;;
20069;SDS011;10195;50.868;4.382;2024-02-26T02:53:27;1.67;;;1.37;;
20069;SDS011;10195;50.868;4.382;2024-02-26T02:55:53;3.97;;;1.37;;
20069;SDS011;10195;50.868;4.382;2024-02-26T02:58:18;4.17;;;2.00;;
20069;SDS011;10195;50.868;4.382;2024-02-26T03:00:44;5.50;;;1.70;;
20069;SDS011;10195;50.868;4.382;2024-02-26T03:03:10;1.57;;;1.47;;
20069;SDS011;10195;50.868;4.382;2024-02-26T03:05:35;5.60;;;1.80;;
20069;SDS011;10195;50.868;4.382;2024-02-26T03:08:01;6.10;;;1.90;;
20069;SDS011;10195;50.868;4.382;2024-02-26T03:10:26;1.83;;;1.13;;
20069;SDS011;10195;50.868;4.382;2024-02-26T03:12:53;5.80;;;1.60;;
20069;SDS011;10195;50.868;4.382;2024-02-26T03:15:18;4.00;;;1.60;;
20069;SDS011;10195;50.868;4.382;2024-02-26T03:17:44;3.17;;;1.40;;
20069;SDS011;10195;50.868;4.382;2024-02-26T03:20:10;2.00;;;1.50;;
20069;SDS011;10195;50.868;4.382;2024-02-26T03:22:38;2.97;;;1.90;;
20069;SDS011;10195;50.868;4.382;2024-02-26T03:25:04;3.53;;;1.67;;
20069;SDS011;10195;50.868;4.382;2024-02-26T03:27:31;2.70;;;2.17;;
20069;SDS011;10195;50.868;4.382;2024-02-26T03:29:56;2.07;;;1.77;;
20069;SDS011;10195;50.868;4.382;2024-02-26T03:32:22;1.97;;;1.47;;
20069;SDS011;10195;50.868;4.382;2024-02-26T03:34:48;2.43;;;1.50;;
20069;SDS011;10195;50.868;4.382;2024-02-26T03:37:13;1.50;;;1.40;;
20069;SDS011;10195;50.868;4.382;2024-02-26T03:39:40;3.90;;;1.60;;
20069;SDS011;10195;50.868;4.382;2024-02-26T03:42:05;2.97;;;1.80;;
20069;SDS011;10195;50.868;4.382;2024-02-26T03:44:31;2.87;;;1.53;;
20069;SDS011;10195;50.868;4.382;2024-02-26T03:46:57;5.20;;;1.70;;
20069;SDS011;10195;50.868;4.382;2024-02-26T03:49:22;3.57;;;1.70;;
20069;SDS011;10195;50.868;4.382;2024-02-26T03:51:48;1.80;;;1.57;;
20069;SDS011;10195;50.868;4.382;2024-02-26T03:54:14;2.57;;;1.43;;
20069;SDS011;10195;50.868;4.382;2024-02-26T03:56:39;2.47;;;1.80;;
20069;SDS011;10195;50.868;4.382;2024-02-26T03:59:05;2.70;;;1.67;;
20069;SDS011;10195;50.868;4.382;2024-02-26T04:01:31;2.40;;;1.80;;
20069;SDS011;10195;50.868;4.382;2024-02-26T04:03:57;4.60;;;2.30;;
20069;SDS011;10195;50.868;4.382;2024-02-26T04:06:22;4.17;;;2.40;;
20069;SDS011;10195;50.868;4.382;2024-02-26T04:08:48;4.73;;;2.47;;
20069;SDS011;10195;50.868;4.382;2024-02-26T04:11:14;4.47;;;2.27;;
20069;SDS011;10195;50.868;4.382;2024-02-26T04:13:43;5.27;;;3.20;;
20069;SDS011;10195;50.868;4.382;2024-02-26T04:16:11;4.23;;;2.50;;
20069;SDS011;10195;50.868;4.382;2024-02-26T04:18:36;6.90;;;3.70;;
20069;SDS011;10195;50.868;4.382;2024-02-26T04:21:03;6.07;;;4.03;;
20069;SDS011;10195;50.868;4.382;2024-02-26T04:23:30;5.63;;;4.70;;
20069;SDS011;10195;50.868;4.382;2024-02-26T04:25:56;9.20;;;5.13;;
20069;SDS011;10195;50.868;4.382;2024-02-26T04:28:21;7.33;;;4.60;;
20069;SDS011;10195;50.868;4.382;2024-02-26T04:30:47;7.10;;;4.80;;
20069;SDS011;10195;50.868;4.382;2024-02-26T04:33:13;6.57;;;4.73;;
20069;SDS011;10195;50.868;4.382;2024-02-26T04:35:39;7.00;;;5.00;;
20069;SDS011;10195;50.868;4.382;2024-02-26T04:38:05;7.63;;;5.57;;
20069;SDS011;10195;50.868;4.382;2024-02-26T04:40:30;6.50;;;4.37;;
20069;SDS011;10195;50.868;4.382;2024-02-26T04:42:56;6.73;;;4.80;;
20069;SDS011;10195;50.868;4.382;2024-02-26T04:45:23;8.83;;;5.53;;
20069;SDS011;10195;50.868;4.382;2024-02-26T04:47:49;9.33;;;4.57;;
20069;SDS011;10195;50.868;4.382;2024-02-26T04:50:15;9.40;;;5.57;;
20069;SDS011;10195;50.868;4.382;2024-02-26T04:52:40;11.97;;;5.83;;
20069;SDS011;10195;50.868;4.382;2024-02-26T04:55:06;7.80;;;5.33;;
20069;SDS011;10195;50.868;4.382;2024-02-26T04:57:32;6.70;;;5.63;;
20069;SDS011;10195;50.868;4.382;2024-02-26T04:59:58;6.70;;;4.90;;
20069;SDS011;10195;50.868;4.382;2024-02-26T05:02:24;6.43;;;4.57;;
20069;SDS011;10195;50.868;4.382;2024-02-26T05:04:49;7.87;;;5.67;;
20069;SDS011;10195;50.868;4.382;2024-02-26T05:07:15;7.17;;;5.63;;
20069;SDS011;10195;50.868;4.382;2024-02-26T05:09:42;9.97;;;6.77;;
20069;SDS011;10195;50.868;4.382;2024-02-26T05:12:09;9.67;;;6.33;;
20069;SDS011;10195;50.868;4.382;2024-02-26T05:14:34;11.77;;;7.43;;
20069;SDS011;10195;50.868;4.382;2024-02-26T05:17:00;10.60;;;6.27;;
20069;SDS011;10195;50.868;4.382;2024-02-26T05:19:26;9.10;;;7.00;;
20069;SDS011;10195;50.868;4.382;2024-02-26T05:21:52;9.97;;;7.37;;
20069;SDS011;10195;50.868;4.382;2024-02-26T05:24:17;10.40;;;6.80;;
20069;SDS011;10195;50.868;4.382;2024-02-26T05:26:47;14.67;;;9.17;;
20069;SDS011;10195;50.868;4.382;2024-02-26T05:29:13;14.83;;;9.60;;
20069;SDS011;10195;50.868;4.382;2024-02-26T05:31:38;14.63;;;10.53;;
20069;SDS011;10195;50.868;4.382;2024-02-26T05:34:04;9.43;;;6.93;;
20069;SDS011;10195;50.868;4.382;2024-02-26T05:36:30;13.40;;;9.87;;
20069;SDS011;10195;50.868;4.382;2024-02-26T05:38:58;13.57;;;8.17;;
20069;SDS011;10195;50.868;4.382;2024-02-26T05:41:25;16.73;;;10.97;;
20069;SDS011;10195;50.868;4.382;2024-02-26T05:43:52;16.37;;;11.77;;
20069;SDS011;10195;50.868;4.382;2024-02-26T05:46:18;6.53;;;5.10;;
20069;SDS011;10195;50.868;4.382;2024-02-26T05:48:48;15.40;;;10.07;;
20069;SDS011;10195;50.868;4.382;2024-02-26T05:51:15;13.17;;;9.27;;
20069;SDS011;10195;50.868;4.382;2024-02-26T05:53:41;12.50;;;10.23;;
20069;SDS011;10195;50.868;4.382;2024-02-26T05:56:06;14.20;;;11.13;;
20069;SDS011;10195;50.868;4.382;2024-02-26T05:58:32;15.03;;;11.17;;
20069;SDS011;10195;50.868;4.382;2024-02-26T06:00:58;16.90;;;10.97;;
20069;SDS011;10195;50.868;4.382;2024-02-26T06:03:25;16.87;;;11.53;;
20069;SDS011;10195;50.868;4.382;2024-02-26T06:05:51;15.80;;;12.07;;
20069;SDS011;10195;50.868;4.382;2024-02-26T06:08:17;13.43;;;9.73;;
20069;SDS011;10195;50.868;4.382;2024-02-26T06:10:42;10.70;;;8.43;;
20069;SDS011;10195;50.868;4.382;2024-02-26T06:13:08;14.90;;;11.73;;
20069;SDS011;10195;50.868;4.382;2024-02-26T06:15:34;10.73;;;8.40;;
20069;SDS011;10195;50.868;4.382;2024-02-26T06:17:59;15.50;;;12.30;;
20069;SDS011;10195;50.868;4.382;2024-02-26T06:20:25;18.50;;;13.23;;
20069;SDS011;10195;50.868;4.382;2024-02-26T06:22:51;13.83;;;11.97;;
20069;SDS011;10195;50.868;4.382;2024-02-26T06:25:16;17.70;;;12.60;;
20069;SDS011;10195;50.868;4.382;2024-02-26T06:27:42;17.07;;;12.37;;
20069;SDS011;10195;50.868;4.382;2024-02-26T06:30:08;15.87;;;11.93;;
20069;SDS011;10195;50.868;4.382;2024-02-26T06:32:36;15.77;;;11.50;;
20069;SDS011;10195;50.868;4.382;2024-02-26T06:35:02;14.63;;;12.43;;
20069;SDS011;10195;50.868;4.382;2024-02-26T06:37:32;14.77;;;11.00;;
20069;SDS011;10195;50.868;4.382;2024-02-26T06:39:58;14.37;;;11.13;;
20069;SDS011;10195;50.868;4.382;2024-02-26T06:42:31;7.03;;;5.27;;
20069;SDS011;10195;50.868;4.382;2024-02-26T06:44:57;15.67;;;11.23;;
20069;SDS011;10195;50.868;4.382;2024-02-26T06:47:23;13.40;;;10.23;;
20069;SDS011;10195;50.868;4.382;2024-02-26T06:49:48;16.47;;;12.10;;
20069;SDS011;10195;50.868;4.382;2024-02-26T06:52:14;18.37;;;11.90;;
20069;SDS011;10195;50.868;4.382;2024-02-26T06:54:40;15.30;;;11.53;;
20069;SDS011;10195;50.868;4.382;2024-02-26T06:57:06;14.77;;;12.47;;
20069;SDS011;10195;50.868;4.382;2024-02-26T06:59:32;15.07;;;11.87;;
20069;SDS011;10195;50.868;4.382;2024-02-26T07:01:57;15.23;;;12.03;;
20069;SDS011;10195;50.868;4.382;2024-02-26T07:04:23;18.37;;;12.47;;
20069;SDS011;10195;50.868;4.382;2024-02-26T07:06:49;12.43;;;9.73;;
20069;SDS011;10195;50.868;4.382;2024-02-26T07:09:14;13.60;;;10.00;;
20069;SDS011;10195;50.868;4.382;2024-02-26T07:11:40;13.73;;;11.93;;
20069;SDS011;10195;50.868;4.382;2024-02-26T07:14:09;16.80;;;13.40;;
20069;SDS011;10195;50.868;4.382;2024-02-26T07:16:35;16.27;;;13.13;;
20069;SDS011;10195;50.868;4.382;2024-02-26T07:19:01;18.03;;;10.67;;
20069;SDS011;10195;50.868;4.382;2024-02-26T07:21:27;11.23;;;8.97;;
20069;SDS011;10195;50.868;4.382;2024-02-26T07:23:53;15.63;;;11.70;;
20069;SDS011;10195;50.868;4.382;2024-02-26T07:26:19;16.03;;;13.03;;
20069;SDS011;10195;50.868;4.382;2024-02-26T07:28:45;12.77;;;11.07;;
20069;SDS011;10195;50.868;4.382;2024-02-26T07:31:11;17.67;;;11.53;;
20069;SDS011;10195;50.868;4.382;2024-02-26T07:33:37;14.07;;;12.37;;
20069;SDS011;10195;50.868;4.382;2024-02-26T07:36:03;15.33;;;12.27;;
20069;SDS011;10195;50.868;4.382;2024-02-26T07:38:29;11.73;;;9.73;;
20069;SDS011;10195;50.868;4.382;2024-02-26T07:40:55;13.87;;;11.93;;
20069;SDS011;10195;50.868;4.382;2024-02-26T07:43:22;15.90;;;12.33;;
20069;SDS011;10195;50.868;4.382;2024-02-26T07:45:47;16.70;;;12.17;;
20069;SDS011;10195;50.868;4.382;2024-02-26T07:48:13;12.97;;;7.23;;
20069;SDS011;10195;50.868;4.382;2024-02-26T07:50:39;16.30;;;12.50;;
20069;SDS011;10195;50.868;4.382;2024-02-26T07:53:05;15.83;;;11.77;;
20069;SDS011;10195;50.868;4.382;2024-02-26T07:55:31;12.73;;;9.00;;
20069;SDS011;10195;50.868;4.382;2024-02-26T07:57:56;13.03;;;10.97;;
20069;SDS011;10195;50.868;4.382;2024-02-26T08:00:22;12.80;;;10.67;;
20069;SDS011;10195;50.868;4.382;2024-02-26T08:02:48;14.27;;;11.27;;
20069;SDS011;10195;50.868;4.382;2024-02-26T08:05:13;13.70;;;11.17;;
20069;SDS011;10195;50.868;4.382;2024-02-26T08:07:39;13.97;;;11.00;;
20069;SDS011;10195;50.868;4.382;2024-02-26T08:10:05;13.13;;;10.73;;
20069;SDS011;10195;50.868;4.382;2024-02-26T08:12:31;9.03;;;8.10;;
20069;SDS011;10195;50.868;4.382;2024-02-26T08:14:57;13.20;;;10.63;;
20069;SDS011;10195;50.868;4.382;2024-02-26T08:17:23;8.30;;;6.23;;
20069;SDS011;10195;50.868;4.382;2024-02-26T08:19:49;9.53;;;6.63;;
20069;SDS011;10195;50.868;4.382;2024-02-26T08:22:14;10.10;;;8.60;;
20069;SDS011;10195;50.868;4.382;2024-02-26T08:24:43;8.23;;;5.93;;
20069;SDS011;10195;50.868;4.382;2024-02-26T08:27:09;13.20;;;8.30;;
20069;SDS011;10195;50.868;4.382;2024-02-26T08:29:34;10.87;;;9.77;;
20069;SDS011;10195;50.868;4.382;2024-02-26T08:32:00;4.20;;;3.77;;
20069;SDS011;10195;50.868;4.382;2024-02-26T08:34:26;4.53;;;3.90;;
20069;SDS011;10195;50.868;4.382;2024-02-26T08:36:52;10.97;;;9.07;;
20069;SDS011;10195;50.868;4.382;2024-02-26T08:39:17;11.67;;;10.17;;
20069;SDS011;10195;50.868;4.382;2024-02-26T08:41:43;12.03;;;10.27;;
20069;SDS011;10195;50.868;4.382;2024-02-26T08:44:10;10.27;;;8.03;;
20069;SDS011;10195;50.868;4.382;2024-02-26T08:46:36;10.67;;;8.07;;
20069;SDS011;10195;50.868;4.382;2024-02-26T08:49:01;8.50;;;6.17;;
20069;SDS011;10195;50.868;4.382;2024-02-26T08:51:27;9.03;;;6.73;;
20069;SDS011;10195;50.868;4.382;2024-02-26T08:53:53;12.90;;;10.33;;
20069;SDS011;10195;50.868;4.382;2024-02-26T08:56:19;6.13;;;5.30;;
20069;SDS011;10195;50.868;4.382;2024-02-26T08:58:46;9.67;;;7.03;;
20069;SDS011;10195;50.868;4.382;2024-02-26T09:01:14;14.67;;;9.30;;
20069;SDS011;10195;50.868;4.382;2024-02-26T09:03:40;10.73;;;9.20;;
20069;SDS011;10195;50.868;4.382;2024-02-26T09:06:05;10.57;;;9.13;;
20069;SDS011;10195;50.868;4.382;2024-02-26T09:08:32;10.37;;;8.83;;
20069;SDS011;10195;50.868;4.382;2024-02-26T09:10:58;5.90;;;4.43;;
20069;SDS011;10195;50.868;4.382;2024-02-26T09:13:23;7.93;;;5.13;;
20069;SDS011;10195;50.868;4.382;2024-02-26T09:15:49;8.03;;;6.53;;
20069;SDS011;10195;50.868;4.382;2024-02-26T09:18:15;11.37;;;7.47;;
20069;SDS011;10195;50.868;4.382;2024-02-26T09:20:43;8.73;;;7.83;;
20069;SDS011;10195;50.868;4.382;2024-02-26T09:23:09;8.83;;;7.77;;
20069;SDS011;10195;50.868;4.382;2024-02-26T09:25:34;10.37;;;8.90;;
20069;SDS011;10195;50.868;4.382;2024-02-26T09:28:00;7.70;;;6.73;;
20069;SDS011;10195;50.868;4.382;2024-02-26T09:30:26;15.83;;;8.93;;
20069;SDS011;10195;50.868;4.382;2024-02-26T09:32:52;10.47;;;8.80;;
20069;SDS011;10195;50.868;4.382;2024-02-26T09:35:17;10.30;;;8.53;;
20069;SDS011;10195;50.868;4.382;2024-02-26T09:37:43;9.07;;;8.13;;
20069;SDS011;10195;50.868;4.382;2024-02-26T09:40:09;10.73;;;7.77;;
20069;SDS011;10195;50.868;4.382;2024-02-26T09:42:41;9.70;;;7.83;;
20069;SDS011;10195;50.868;4.382;2024-02-26T09:45:15;11.43;;;4.40;;
20069;SDS011;10195;50.868;4.382;2024-02-26T09:47:43;5.97;;;5.23;;
20069;SDS011;10195;50.868;4.382;2024-02-26T09:50:10;9.07;;;7.43;;
20069;SDS011;10195;50.868;4.382;2024-02-26T09:52:38;10.10;;;8.60;;
20069;SDS011;10195;50.868;4.382;2024-02-26T09:55:07;10.53;;;7.80;;
20069;SDS011;10195;50.868;4.382;2024-02-26T09:57:34;10.93;;;9.10;;
20069;SDS011;10195;50.868;4.382;2024-02-26T10:00:02;11.40;;;9.60;;
20069;SDS011;10195;50.868;4.382;2024-02-26T10:02:33;5.87;;;5.03;;
20069;SDS011;10195;50.868;4.382;2024-02-26T10:05:01;10.37;;;8.53;;
20069;SDS011;10195;50.868;4.382;2024-02-26T10:07:30;5.10;;;3.73;;
20069;SDS011;10195;50.868;4.382;2024-02-26T10:09:56;8.93;;;8.03;;
20069;SDS011;10195;50.868;4.382;2024-02-26T10:12:22;6.00;;;3.37;;
20069;SDS011;10195;50.868;4.382;2024-02-26T10:14:50;10.23;;;8.07;;
20069;SDS011;10195;50.868;4.382;2024-02-26T10:17:16;7.77;;;5.17;;
20069;SDS011;10195;50.868;4.382;2024-02-26T10:19:44;7.80;;;5.63;;
20069;SDS011;10195;50.868;4.382;2024-02-26T10:22:09;8.57;;;7.03;;
20069;SDS011;10195;50.868;4.382;2024-02-26T10:24:35;12.73;;;6.37;;
20069;SDS011;10195;50.868;4.382;2024-02-26T10:27:01;8.50;;;7.50;;
20069;SDS011;10195;50.868;4.382;2024-02-26T10:29:27;8.60;;;7.40;;
20069;SDS011;10195;50.868;4.382;2024-02-26T10:31:53;7.20;;;6.37;;
20069;SDS011;10195;50.868;4.382;2024-02-26T10:34:19;9.57;;;6.90;;
20069;SDS011;10195;50.868;4.382;2024-02-26T10:36:45;8.20;;;7.30;;
20069;SDS011;10195;50.868;4.382;2024-02-26T10:39:14;10.97;;;7.37;;
20069;SDS011;10195;50.868;4.382;2024-02-26T10:41:40;4.47;;;3.27;;
20069;SDS011;10195;50.868;4.382;2024-02-26T10:44:08;7.23;;;6.47;;
20069;SDS011;10195;50.868;4.382;2024-02-26T10:46:35;6.67;;;5.80;;
20069;SDS011;10195;50.868;4.382;2024-02-26T10:49:02;10.27;;;6.43;;
20069;SDS011;10195;50.868;4.382;2024-02-26T10:51:28;10.47;;;6.90;;
20069;SDS011;10195;50.868;4.382;2024-02-26T10:53:56;11.67;;;8.40;;
20069;SDS011;10195;50.868;4.382;2024-02-26T10:56:26;9.97;;;7.47;;
20069;SDS011;10195;50.868;4.382;2024-02-26T10:58:53;12.20;;;8.63;;
20069;SDS011;10195;50.868;4.382;2024-02-26T11:01:20;12.90;;;9.40;;
20069;SDS011;10195;50.868;4.382;2024-02-26T11:03:53;6.63;;;5.70;;
20069;SDS011;10195;50.868;4.382;2024-02-26T11:06:20;6.63;;;5.63;;
20069;SDS011;10195;50.868;4.382;2024-02-26T11:08:50;15.97;;;10.17;;
20069;SDS011;10195;50.868;4.382;2024-02-26T11:11:20;5.73;;;4.87;;
20069;SDS011;10195;50.868;4.382;2024-02-26T11:13:47;6.80;;;5.93;;
20069;SDS011;10195;50.868;4.382;2024-02-26T11:16:19;4.60;;;3.70;;
20069;SDS011;10195;50.868;4.382;2024-02-26T11:18:47;6.50;;;5.53;;
20069;SDS011;10195;50.868;4.382;2024-02-26T11:21:16;9.93;;;6.83;;
20069;SDS011;10195;50.868;4.382;2024-02-26T11:23:52;8.13;;;4.07;;
20069;SDS011;10195;50.868;4.382;2024-02-26T11:26:18;3.33;;;2.87;;
20069;SDS011;10195;50.868;4.382;2024-02-26T11:28:46;2.93;;;2.53;;
20069;SDS011;10195;50.868;4.382;2024-02-26T11:31:13;3.37;;;2.90;;
20069;SDS011;10195;50.868;4.382;2024-02-26T11:33:39;6.00;;;3.27;;
20069;SDS011;10195;50.868;4.382;2024-02-26T11:36:11;9.97;;;5.50;;
20069;SDS011;10195;50.868;4.382;2024-02-26T11:38:39;20.40;;;10.90;;
20069;SDS011;10195;50.868;4.382;2024-02-26T11:41:05;4.77;;;3.80;;
20069;SDS011;10195;50.868;4.382;2024-02-26T11:43:51;5.90;;;4.70;;
20069;SDS011;10195;50.868;4.382;2024-02-26T11:46:25;6.60;;;6.00;;
20069;SDS011;10195;50.868;4.382;2024-02-26T11:48:51;3.60;;;3.17;;
20069;SDS011;10195;50.868;4.382;2024-02-26T11:51:19;4.30;;;3.87;;
20069;SDS011;10195;50.868;4.382;2024-02-26T11:53:50;19.93;;;15.80;;
20069;SDS011;10195;50.868;4.382;2024-02-26T11:58:42;5.13;;;4.50;;
20069;SDS011;10195;50.868;4.382;2024-02-26T12:04:11;4.93;;;4.43;;
20069;SDS011;10195;50.868;4.382;2024-02-26T12:06:40;17.77;;;10.47;;
20069;SDS011;10195;50.868;4.382;2024-02-26T12:09:11;22.60;;;13.17;;
20069;SDS011;10195;50.868;4.382;2024-02-26T12:11:38;8.07;;;6.90;;
20069;SDS011;10195;50.868;4.382;2024-02-26T12:14:08;7.10;;;6.37;;
20069;SDS011;10195;50.868;4.382;2024-02-26T12:16:35;7.60;;;6.33;;
20069;SDS011;10195;50.868;4.382;2024-02-26T12:19:07;10.17;;;7.03;;
20069;SDS011;10195;50.868;4.382;2024-02-26T12:21:37;3.60;;;2.90;;
20069;SDS011;10195;50.868;4.382;2024-02-26T12:24:12;3.63;;;3.33;;
20069;SDS011;10195;50.868;4.382;2024-02-26T12:26:39;12.53;;;9.13;;
20069;SDS011;10195;50.868;4.382;2024-02-26T12:29:05;7.67;;;4.83;;
20069;SDS011;10195;50.868;4.382;2024-02-26T12:31:34;7.27;;;5.03;;
20069;SDS011;10195;50.868;4.382;2024-02-26T12:34:04;7.33;;;6.00;;
20069;SDS011;10195;50.868;4.382;2024-02-26T12:36:30;8.10;;;6.43;;
20069;SDS011;10195;50.868;4.382;2024-02-26T12:38:56;6.53;;;4.80;;
20069;SDS011;10195;50.868;4.382;2024-02-26T12:41:22;6.97;;;5.83;;
20069;SDS011;10195;50.868;4.382;2024-02-26T12:43:48;4.30;;;2.43;;
20069;SDS011;10195;50.868;4.382;2024-02-26T12:46:13;6.07;;;4.60;;
20069;SDS011;10195;50.868;4.382;2024-02-26T12:48:43;5.87;;;5.27;;
20069;SDS011;10195;50.868;4.382;2024-02-26T12:51:12;7.30;;;6.03;;
20069;SDS011;10195;50.868;4.382;2024-02-26T12:53:40;8.47;;;7.00;;
20069;SDS011;10195;50.868;4.382;2024-02-26T12:56:07;9.93;;;6.70;;
20069;SDS011;10195;50.868;4.382;2024-02-26T12:58:34;6.53;;;4.83;;
20069;SDS011;10195;50.868;4.382;2024-02-26T13:01:03;8.13;;;5.13;;
20069;SDS011;10195;50.868;4.382;2024-02-26T13:03:29;7.03;;;3.30;;
20069;SDS011;10195;50.868;4.382;2024-02-26T13:05:55;3.10;;;2.33;;
20069;SDS011;10195;50.868;4.382;2024-02-26T13:08:21;9.20;;;4.80;;
20069;SDS011;10195;50.868;4.382;2024-02-26T13:10:47;7.77;;;5.50;;
20069;SDS011;10195;50.868;4.382;2024-02-26T13:13:17;7.10;;;4.53;;
20069;SDS011;10195;50.868;4.382;2024-02-26T13:15:43;6.30;;;4.97;;
20069;SDS011;10195;50.868;4.382;2024-02-26T13:18:13;6.80;;;5.67;;
20069;SDS011;10195;50.868;4.382;2024-02-26T13:20:39;7.93;;;6.00;;
20069;SDS011;10195;50.868;4.382;2024-02-26T13:23:12;6.80;;;4.57;;
20069;SDS011;10195;50.868;4.382;2024-02-26T13:25:38;4.70;;;3.80;;
20069;SDS011;10195;50.868;4.382;2024-02-26T13:28:08;7.43;;;5.77;;
20069;SDS011;10195;50.868;4.382;2024-02-26T13:30:34;5.70;;;4.57;;
20069;SDS011;10195;50.868;4.382;2024-02-26T13:33:10;5.73;;;5.13;;
20069;SDS011;10195;50.868;4.382;2024-02-26T13:35:37;8.27;;;6.20;;
20069;SDS011;10195;50.868;4.382;2024-02-26T13:38:05;4.50;;;3.37;;
20069;SDS011;10195;50.868;4.382;2024-02-26T13:40:31;8.13;;;7.00;;
20069;SDS011;10195;50.868;4.382;2024-02-26T13:42:57;8.57;;;5.00;;
20069;SDS011;10195;50.868;4.382;2024-02-26T13:45:23;8.87;;;7.13;;
20069;SDS011;10195;50.868;4.382;2024-02-26T13:47:48;6.37;;;4.63;;
20069;SDS011;10195;50.868;4.382;2024-02-26T13:50:14;9.70;;;7.37;;
20069;SDS011;10195;50.868;4.382;2024-02-26T13:52:40;9.63;;;7.10;;
20069;SDS011;10195;50.868;4.382;2024-02-26T13:55:06;18.30;;;8.83;;
20069;SDS011;10195;50.868;4.382;2024-02-26T13:57:32;14.50;;;8.17;;
20069;SDS011;10195;50.868;4.382;2024-02-26T13:59:58;6.03;;;4.23;;
20069;SDS011;10195;50.868;4.382;2024-02-26T14:02:24;13.47;;;8.80;;
20069;SDS011;10195;50.868;4.382;2024-02-26T14:04:49;10.80;;;7.60;;
20069;SDS011;10195;50.868;4.382;2024-02-26T14:07:15;15.07;;;9.03;;
20069;SDS011;10195;50.868;4.382;2024-02-26T14:09:42;12.70;;;7.93;;
20069;SDS011;10195;50.868;4.382;2024-02-26T14:12:08;11.93;;;7.93;;
20069;SDS011;10195;50.868;4.382;2024-02-26T14:14:34;8.77;;;7.07;;
20069;SDS011;10195;50.868;4.382;2024-02-26T14:17:03;8.27;;;5.57;;
20069;SDS011;10195;50.868;4.382;2024-02-26T14:19:29;7.93;;;5.50;;
20069;SDS011;10195;50.868;4.382;2024-02-26T14:21:54;11.50;;;7.63;;
20069;SDS011;10195;50.868;4.382;2024-02-26T14:24:20;11.80;;;8.23;;
20069;SDS011;10195;50.868;4.382;2024-02-26T14:26:46;11.13;;;7.87;;
20069;SDS011;10195;50.868;4.382;2024-02-26T14:29:11;10.63;;;7.27;;
20069;SDS011;10195;50.868;4.382;2024-02-26T14:31:37;8.37;;;4.67;;
20069;SDS011;10195;50.868;4.382;2024-02-26T14:34:03;8.80;;;7.17;;
20069;SDS011;10195;50.868;4.382;2024-02-26T14:36:28;12.83;;;7.77;;
20069;SDS011;10195;50.868;4.382;2024-02-26T14:38:54;8.07;;;6.00;;
20069;SDS011;10195;50.868;4.382;2024-02-26T14:41:20;12.27;;;7.63;;